Time;durP1;ratioP1;P1;durP2;ratioP2;P2;SDS_P1;SDS_P2;PMS_P1;PMS_P2;Temp;Humidity;BMP_temperature;BMP_pressure;BME280_temperature;BME280_humidity;BME280_pressure;Samples;Min_cycle;Max_cycle;Signal;HPM_P1;HPM_P2
2021/12/13 00:02:34;;;;;;;4.93;1.00;;;;;;;8.79;74.77;100771.72;4956735;28;20058;-87
2021/12/13 00:05:11;;;;;;;6.07;1.67;;;;;;;8.73;74.89;100778.59;4947608;28;20478;-86
2021/12/13 00:07:41;;;;;;;4.03;0.77;;;;;;;8.71;74.82;100789.13;4936077;28;20075;-87
2021/12/13 00:10:17;;;;;;;4.72;0.98;;;;;;;8.64;75.23;100794.38;4938725;28;20047;-87
2021/12/13 00:12:58;;;;;;;2.95;0.70;;;;;;;8.61;75.36;100819.84;4944313;28;20055;-86
2021/12/13 00:15:37;;;;;;;4.03;0.90;;;;;;;8.58;75.47;100815.00;4959936;28;20462;-87
2021/12/13 00:18:07;;;;;;;5.88;1.48;;;;;;;8.58;75.68;100826.84;4958994;28;20043;-86
2021/12/13 00:20:45;;;;;;;9.18;1.67;;;;;;;8.56;75.58;100826.38;4944230;28;20065;-87
2021/12/13 00:23:25;;;;;;;4.65;0.88;;;;;;;8.53;76.16;100840.81;4945690;28;20058;-84
2021/12/13 00:25:56;;;;;;;9.73;1.40;;;;;;;8.54;76.03;100858.19;4961354;28;20049;-86
2021/12/13 00:28:26;;;;;;;11.05;2.25;;;;;;;8.51;76.11;100853.34;4944301;28;20058;-87
2021/12/13 00:30:53;;;;;;;7.57;1.25;;;;;;;8.49;76.22;100839.06;4953977;28;20565;-87
2021/12/13 00:33:57;;;;;;;8.00;1.65;;;;;;;8.44;76.30;100847.53;4935848;28;20146;-87
2021/12/13 00:36:32;;;;;;;6.18;1.52;;;;;;;8.42;76.28;100847.81;4950832;28;20058;-86
2021/12/13 00:39:35;;;;;;;10.25;1.65;;;;;;;8.39;76.68;100858.72;4961814;28;20043;-86
2021/12/13 00:42:03;;;;;;;;;;;;;;;8.34;76.92;100859.69;4959121;28;20039;-86
2021/12/13 00:44:37;;;;;;;6.20;1.33;;;;;;;8.32;76.98;100861.16;4966117;28;20817;-87
2021/12/13 00:47:13;;;;;;;7.28;1.27;;;;;;;8.26;77.03;100857.72;4959505;28;20050;-86
2021/12/13 00:49:46;;;;;;;8.45;1.85;;;;;;;8.23;76.83;100871.38;4943825;28;20070;-86
2021/12/13 00:52:18;;;;;;;4.90;1.17;;;;;;;8.23;77.24;100871.38;4960869;28;20038;-86
2021/12/13 00:54:46;;;;;;;8.73;1.73;;;;;;;8.23;77.23;100865.84;4945326;28;20039;-86
2021/12/13 00:57:28;;;;;;;4.72;1.02;;;;;;;8.22;77.57;100869.75;4960708;28;20130;-87
2021/12/13 01:00:04;;;;;;;7.00;1.45;;;;;;;8.24;77.57;100872.97;4965135;28;20078;-86
2021/12/13 01:02:38;;;;;;;14.73;2.72;;;;;;;8.19;77.39;100867.63;4966387;28;20042;-86
2021/12/13 01:05:08;;;;;;;8.45;1.58;;;;;;;8.16;77.63;100873.78;4945370;28;20039;-87
2021/12/13 01:08:00;;;;;;;13.30;1.98;;;;;;;8.12;77.76;100870.91;4959597;28;20043;-85
2021/12/13 01:10:39;;;;;;;8.17;1.47;;;;;;;8.13;77.85;100874.47;4941222;28;20061;-87
2021/12/13 01:13:13;;;;;;;8.18;1.67;;;;;;;8.11;77.88;100879.47;4967613;28;20143;-87
2021/12/13 01:15:50;;;;;;;5.18;1.05;;;;;;;8.08;78.00;100891.97;4949142;28;20080;-86
2021/12/13 01:21:14;;;;;;;5.65;1.42;;;;;;;8.10;78.00;100919.25;4948541;28;20047;-86
2021/12/13 01:23:51;;;;;;;10.40;1.42;;;;;;;8.09;77.95;100929.44;4957333;28;20055;-86
2021/12/13 01:26:37;;;;;;;10.40;1.38;;;;;;;8.06;77.96;100926.53;4928424;28;20042;-87
2021/12/13 01:29:20;;;;;;;7.53;1.05;;;;;;;8.06;78.17;100932.03;4953670;28;20077;-86
2021/12/13 01:31:58;;;;;;;;;;;;;;;8.04;78.17;100948.09;4961921;28;20094;-86
2021/12/13 01:34:27;;;;;;;7.47;1.30;;;;;;;8.03;78.19;100946.47;4961174;28;19918;-87
2021/12/13 01:37:15;;;;;;;6.07;1.20;;;;;;;8.02;78.23;100950.38;4943121;28;20091;-86
2021/12/13 01:39:46;;;;;;;5.22;1.38;;;;;;;8.01;78.03;100951.50;4959930;28;20050;-86
2021/12/13 01:42:15;;;;;;;7.40;1.75;;;;;;;7.96;78.41;100950.53;4927690;28;20078;-86
2021/12/13 01:44:48;;;;;;;5.85;0.85;;;;;;;7.98;78.48;100969.50;4961004;28;20049;-86
2021/12/13 01:47:34;;;;;;;5.40;1.05;;;;;;;7.94;78.24;100952.00;4960073;28;20054;-85
2021/12/13 01:50:24;;;;;;;6.45;1.70;;;;;;;7.94;78.54;100966.56;4933049;28;20097;-86
2021/12/13 01:52:53;;;;;;;3.78;1.23;;;;;;;7.93;78.61;100964.97;4939618;28;20047;-87
2021/12/13 01:55:34;;;;;;;9.73;1.50;;;;;;;7.93;78.54;100958.63;4951403;28;20161;-86
2021/12/13 01:58:41;;;;;;;5.13;1.45;;;;;;;7.93;78.47;100969.66;4942702;28;20049;-86
2021/12/13 02:01:09;;;;;;;10.15;1.92;;;;;;;7.93;78.41;100964.97;4952174;28;20075;-86
2021/12/13 02:04:01;;;;;;;6.70;1.10;;;;;;;7.91;78.56;100986.53;4956383;28;20039;-86
2021/12/13 02:06:36;;;;;;;3.63;1.25;;;;;;;7.94;79.00;101004.38;4945456;28;20125;-86
2021/12/13 02:09:13;;;;;;;9.80;1.77;;;;;;;7.95;78.79;101000.47;4939854;28;20046;-86
2021/12/13 02:11:42;;;;;;;13.00;1.65;;;;;;;7.94;78.73;101005.16;4951043;28;20122;-87
2021/12/13 02:14:15;;;;;;;3.95;1.10;;;;;;;7.95;78.75;101011.50;4946288;28;20035;-86
2021/12/13 02:17:00;;;;;;;10.73;1.88;;;;;;;7.95;78.91;101017.81;4923298;28;21002;-86
2021/12/13 02:19:34;;;;;;;14.70;2.88;;;;;;;7.93;78.98;101013.75;4958733;28;20086;-86
2021/12/13 02:22:20;;;;;;;11.65;1.20;;;;;;;7.92;78.85;101003.84;4957255;28;20478;-87
2021/12/13 02:24:48;;;;;;;6.53;1.42;;;;;;;7.90;79.03;101015.22;4942229;28;20114;-85
2021/12/13 02:27:21;;;;;;;9.07;1.58;;;;;;;7.92;79.12;101023.16;4957599;28;20038;-85
2021/12/13 02:29:49;;;;;;;12.40;2.30;;;;;;;7.88;79.22;101027.69;4945524;28;20411;-87
2021/12/13 02:32:16;;;;;;;6.90;3.28;;;;;;;7.90;79.35;101028.19;4953997;28;20078;-85
2021/12/13 02:34:43;;;;;;;8.13;1.90;;;;;;;7.89;79.43;101021.03;4958357;28;20133;-85
2021/12/13 02:37:13;;;;;;;12.15;3.95;;;;;;;7.91;79.17;101032.56;4964307;28;20054;-86
2021/12/13 02:39:49;;;;;;;10.07;1.48;;;;;;;7.88;79.21;101039.53;4942023;28;20043;-86
2021/12/13 02:42:19;;;;;;;8.30;1.42;;;;;;;7.86;79.25;101041.78;4948932;28;20138;-85
2021/12/13 02:44:52;;;;;;;6.57;1.15;;;;;;;7.85;79.44;101042.94;4932599;28;20054;-86
2021/12/13 02:47:34;;;;;;;10.00;2.22;;;;;;;7.86;79.31;101014.22;4964395;28;20094;-86
2021/12/13 02:50:09;;;;;;;13.25;1.83;;;;;;;7.89;79.00;101002.56;4941892;28;20043;-86
2021/12/13 02:52:40;;;;;;;7.13;1.40;;;;;;;7.87;79.23;101004.81;4943434;28;20038;-86
2021/12/13 02:55:20;;;;;;;7.20;2.00;;;;;;;7.86;79.36;101014.22;4965150;28;20101;-87
2021/12/13 02:57:50;;;;;;;7.15;1.58;;;;;;;7.85;79.18;101000.78;4942637;28;20093;-86
2021/12/13 03:00:43;;;;;;;5.50;1.17;;;;;;;7.82;79.35;101009.69;4932863;28;20070;-86
2021/12/13 03:03:14;;;;;;;6.38;1.10;;;;;;;7.82;79.43;101009.69;4941761;28;20063;-86
2021/12/13 03:05:49;;;;;;;8.95;1.30;;;;;;;7.83;79.41;101025.09;4932133;28;20062;-85
2021/12/13 03:08:39;;;;;;;6.30;1.30;;;;;;;7.82;79.44;101040.00;4954285;28;20047;-86
2021/12/13 03:11:12;;;;;;;9.52;1.55;;;;;;;7.81;79.58;101043.91;4940008;28;20491;-87
2021/12/13 03:13:39;;;;;;;6.38;1.25;;;;;;;7.83;79.42;101056.22;4928575;28;20071;-86
2021/12/13 03:16:17;;;;;;;11.30;1.73;;;;;;;7.78;79.52;101059.09;4944262;28;20138;-86
2021/12/13 03:19:08;;;;;;;6.22;1.25;;;;;;;7.79;79.49;101052.47;4945333;28;20058;-86
2021/12/13 03:21:51;;;;;;;6.88;1.63;;;;;;;7.80;79.26;101045.03;4954511;28;20047;-85
2021/12/13 03:24:50;;;;;;;6.45;1.23;;;;;;;7.78;79.58;101042.56;4928409;28;20132;-86
2021/12/13 03:27:31;;;;;;;5.93;1.02;;;;;;;7.80;79.35;101042.28;4939198;28;20046;-86
2021/12/13 03:30:04;;;;;;;6.07;1.33;;;;;;;7.82;79.32;101046.31;4928692;28;20055;-87
2021/12/13 03:32:39;;;;;;;7.20;1.40;;;;;;;7.82;79.37;101046.31;4929525;28;20058;-86
2021/12/13 03:35:22;;;;;;;3.08;1.10;;;;;;;7.80;79.47;101062.38;4930207;28;20125;-86
2021/12/13 03:38:07;;;;;;;5.68;1.50;;;;;;;7.80;79.49;101067.91;4929621;28;20047;-86
2021/12/13 03:40:34;;;;;;;6.28;1.52;;;;;;;7.79;79.77;101063.50;4930373;28;20039;-86
2021/12/13 03:43:09;;;;;;;9.40;1.75;;;;;;;7.79;79.62;101071.75;4956801;28;20055;-86
2021/12/13 03:45:43;;;;;;;6.03;1.35;;;;;;;7.80;79.42;101064.31;4950343;28;20032;-87
2021/12/13 03:48:13;;;;;;;6.63;1.88;;;;;;;7.82;79.75;101090.44;4957922;28;20721;-86
2021/12/13 03:50:47;;;;;;;11.70;1.65;;;;;;;7.85;79.61;101094.50;4932539;28;20068;-86
2021/12/13 03:53:17;;;;;;;9.65;1.40;;;;;;;7.84;79.69;101098.38;4950388;28;20047;-87
2021/12/13 03:55:50;;;;;;;7.00;1.17;;;;;;;7.83;79.74;101091.25;4932796;28;20168;-86
2021/12/13 03:58:22;;;;;;;8.77;1.80;;;;;;;7.84;79.86;101079.06;4949309;28;20039;-86
2021/12/13 04:00:54;;;;;;;5.60;1.40;;;;;;;7.83;79.59;101086.56;4962869;28;20113;-86
2021/12/13 04:03:22;;;;;;;6.57;1.27;;;;;;;7.81;79.68;101099.81;4950490;28;20047;-85
2021/12/13 04:05:50;;;;;;;3.55;1.08;;;;;;;7.81;79.96;101091.53;4951194;28;20047;-85
2021/12/13 04:08:19;;;;;;;7.60;0.90;;;;;;;7.80;79.86;101087.19;4949216;28;20057;-86
2021/12/13 04:10:56;;;;;;;9.70;3.58;;;;;;;7.79;79.93;101093.00;4949436;28;20043;-86
2021/12/13 04:13:27;;;;;;;12.82;1.42;;;;;;;7.78;80.04;101094.94;4950808;28;20050;-86
2021/12/13 04:16:03;;;;;;;10.70;1.60;;;;;;;7.80;79.40;101098.22;4933163;28;20158;-87
2021/12/13 04:21:24;;;;;;;10.00;1.60;;;;;;;7.78;79.85;101094.16;4950154;28;20043;-85
2021/12/13 04:24:07;;;;;;;4.93;1.70;;;;;;;7.75;80.20;101103.88;4933552;28;20208;-86
2021/12/13 04:26:52;;;;;;;8.98;1.20;;;;;;;7.75;80.14;101106.63;4958010;28;20032;-85
2021/12/13 04:29:26;;;;;;;5.18;1.30;;;;;;;7.74;79.91;101115.19;4932207;28;20056;-85
2021/12/13 04:31:54;;;;;;;6.38;1.50;;;;;;;7.74;79.97;101116.00;4948537;28;20157;-86
2021/12/13 04:34:24;;;;;;;8.57;1.13;;;;;;;7.72;80.03;101118.28;4941157;28;20047;-86
2021/12/13 04:37:20;;;;;;;7.95;1.17;;;;;;;7.73;80.20;101125.41;4950352;28;20031;-86
2021/12/13 04:39:52;;;;;;;8.30;1.17;;;;;;;7.74;80.04;101127.03;4948186;28;20043;-86
2021/12/13 04:42:21;;;;;;;9.70;1.60;;;;;;;7.74;80.03;101126.22;4949185;28;20047;-86
2021/12/13 04:44:51;;;;;;;5.40;0.95;;;;;;;7.73;80.04;101130.91;4947767;28;20043;-86
2021/12/13 04:47:41;;;;;;;9.73;1.10;;;;;;;7.73;80.20;101130.91;4949092;28;20050;-85
2021/12/13 04:50:19;;;;;;;5.60;1.42;;;;;;;7.70;80.01;101131.56;4928732;28;20055;-86
2021/12/13 04:52:47;;;;;;;9.85;1.23;;;;;;;7.73;80.09;101141.94;4947958;28;20051;-86
2021/12/13 04:55:23;;;;;;;7.32;1.30;;;;;;;7.70;80.21;101133.50;4947651;28;20054;-86
2021/12/13 04:57:53;;;;;;;4.00;1.05;;;;;;;7.70;80.23;101126.06;4958972;28;20117;-86
2021/12/13 05:00:30;;;;;;;7.53;1.38;;;;;;;7.70;80.30;101130.75;4939894;28;20061;-85
2021/12/13 05:03:01;;;;;;;11.45;3.03;;;;;;;7.70;80.36;101142.59;4960037;28;20051;-86
2021/12/13 05:05:30;;;;;;;15.77;3.53;;;;;;;7.70;80.39;101147.28;4944023;28;20062;-86
2021/12/13 05:07:58;;;;;;;3.13;0.80;;;;;;;7.70;80.35;101148.09;4961289;28;20047;-86
2021/12/13 05:10:25;;;;;;;12.75;2.22;;;;;;;7.69;80.48;101142.88;4961424;28;20050;-85
2021/12/13 05:13:04;;;;;;;3.70;0.93;;;;;;;7.69;80.46;101157.47;4944921;28;20086;-86
2021/12/13 05:15:33;;;;;;;9.20;1.50;;;;;;;7.69;80.35;101151.97;4933588;28;20491;-86
2021/12/13 05:18:07;;;;;;;8.68;1.50;;;;;;;7.70;80.44;101153.63;4942864;28;20049;-86
2021/12/13 05:20:39;;;;;;;4.43;1.20;;;;;;;7.71;80.16;101146.13;4949685;28;20550;-86
2021/12/13 05:23:10;;;;;;;6.27;1.10;;;;;;;7.70;80.51;101152.78;4943536;28;21151;-86
2021/12/13 05:25:49;;;;;;;8.52;1.00;;;;;;;7.67;80.58;101154.25;4947568;28;20053;-86
2021/12/13 05:28:23;;;;;;;12.32;1.40;;;;;;;7.66;80.44;101149.84;4942204;28;20039;-86
2021/12/13 05:30:57;;;;;;;7.57;1.00;;;;;;;7.64;80.57;101154.88;4959976;28;20737;-86
2021/12/13 05:33:28;;;;;;;8.90;1.48;;;;;;;7.65;80.76;101150.97;4960701;28;20047;-86
2021/12/13 05:36:03;;;;;;;7.10;2.05;;;;;;;7.64;80.68;101163.13;4962435;28;20035;-85
2021/12/13 05:38:41;;;;;;;5.05;0.88;;;;;;;7.63;80.61;101172.53;4961194;28;20051;-85
2021/12/13 05:41:23;;;;;;;9.30;1.00;;;;;;;7.60;80.71;101164.88;4949545;28;20043;-86
2021/12/13 05:44:12;;;;;;;5.10;1.08;;;;;;;7.59;80.84;101193.56;4959837;28;20035;-86
2021/12/13 05:46:42;;;;;;;10.23;1.80;;;;;;;7.60;80.91;101197.16;4942480;28;20471;-86
2021/12/13 05:49:21;;;;;;;11.60;1.80;;;;;;;7.58;80.79;101194.69;4958247;28;20053;-85
2021/12/13 05:51:52;;;;;;;8.30;2.28;;;;;;;7.58;80.82;101205.72;4949273;28;20133;-84
2021/12/13 05:54:29;;;;;;;6.03;1.23;;;;;;;7.58;80.85;101210.41;4959860;28;20058;-85
2021/12/13 05:57:04;;;;;;;9.93;2.00;;;;;;;7.56;80.94;101207.97;4949473;28;20059;-86
2021/12/13 05:59:38;;;;;;;7.57;1.40;;;;;;;7.56;80.88;101202.47;4931756;28;20058;-86
2021/12/13 06:02:39;;;;;;;7.00;1.20;;;;;;;7.57;80.96;101220.59;4942990;28;20483;-85
2021/12/13 06:05:15;;;;;;;8.90;1.00;;;;;;;7.58;80.96;101222.25;4918417;28;20058;-86
2021/12/13 06:07:54;;;;;;;6.32;1.33;;;;;;;7.57;81.21;101220.59;4965576;28;20049;-86
2021/12/13 06:10:21;;;;;;;12.75;2.17;;;;;;;7.60;80.95;101222.75;4949898;28;20047;-87
2021/12/13 06:13:00;;;;;;;6.53;1.00;;;;;;;7.57;81.04;101215.09;4957700;28;20039;-86
2021/12/13 06:15:36;;;;;;;7.85;1.50;;;;;;;7.58;81.12;101215.91;4964252;28;20057;-85
2021/12/13 06:18:05;;;;;;;5.53;1.58;;;;;;;7.58;81.22;101215.91;4958870;28;20049;-85
2021/12/13 06:21:10;;;;;;;7.70;1.00;;;;;;;7.60;81.29;101208.16;4959101;28;20031;-86
2021/12/13 06:23:38;;;;;;;9.23;1.20;;;;;;;7.61;81.27;101204.28;4957072;28;20037;-86
2021/12/13 06:26:10;;;;;;;9.15;1.30;;;;;;;7.60;81.16;101208.97;4948149;28;20739;-86
2021/12/13 06:28:57;;;;;;;7.03;1.25;;;;;;;7.60;81.12;101211.72;4948640;28;20031;-86
2021/12/13 06:31:35;;;;;;;9.10;1.25;;;;;;;7.61;81.08;101204.28;4942165;28;20110;-85
2021/12/13 06:34:07;;;;;;;8.32;2.40;;;;;;;7.59;81.16;101201.84;4941205;28;20105;-86
2021/12/13 06:36:40;;;;;;;6.78;1.30;;;;;;;7.61;81.38;101209.78;4958826;28;20049;-85
2021/12/13 06:39:19;;;;;;;18.48;3.08;;;;;;;7.59;81.32;101223.88;4943536;28;20508;-86
2021/12/13 06:41:58;;;;;;;9.82;1.30;;;;;;;7.59;81.41;101223.88;4943151;28;20057;-86
2021/12/13 06:44:29;;;;;;;9.02;1.92;;;;;;;7.61;81.50;101220.81;4958002;28;20126;-86
2021/12/13 06:47:03;;;;;;;7.30;1.88;;;;;;;7.59;81.45;101217.56;4957622;28;20118;-86
2021/12/13 06:49:44;;;;;;;6.57;1.40;;;;;;;7.58;81.18;101216.75;4941878;28;20047;-86
2021/12/13 06:52:14;;;;;;;9.98;2.05;;;;;;;7.59;81.70;101223.06;4958622;28;20042;-85
2021/12/13 06:55:07;;;;;;;8.43;1.48;;;;;;;7.55;81.58;101228.38;4942368;28;20079;-86
2021/12/13 06:57:38;;;;;;;12.90;1.92;;;;;;;7.54;81.63;101221.25;4925504;28;20047;-86
2021/12/13 07:00:26;;;;;;;11.20;1.15;;;;;;;7.53;81.60;101216.88;4958152;28;20050;-86
2021/12/13 07:03:01;;;;;;;10.25;1.35;;;;;;;7.55;81.46;101213.78;4949578;28;20051;-85
2021/12/13 07:05:41;;;;;;;6.07;1.77;;;;;;;7.54;81.58;101204.72;4941162;28;20507;-84
2021/12/13 07:08:15;;;;;;;8.70;1.50;;;;;;;7.55;81.73;101200.81;4948821;28;20406;-86
2021/12/13 07:11:12;;;;;;;4.53;1.55;;;;;;;7.53;81.68;101203.09;4957999;28;20490;-87
2021/12/13 07:13:50;;;;;;;9.73;1.75;;;;;;;7.56;81.67;101201.66;4953472;28;20051;-86
2021/12/13 07:16:25;;;;;;;8.82;1.33;;;;;;;7.55;81.65;101214.59;4942541;28;20046;-85
2021/12/13 07:19:03;;;;;;;6.68;2.38;;;;;;;7.55;81.71;101211.84;4958622;28;20042;-87
2021/12/13 07:21:33;;;;;;;13.15;2.83;;;;;;;7.55;81.67;101217.34;4932859;28;20059;-85
2021/12/13 07:24:09;;;;;;;13.38;1.63;;;;;;;7.56;81.53;101219.00;4947185;28;20919;-85
2021/12/13 07:26:43;;;;;;;9.85;1.13;;;;;;;7.57;81.48;101226.13;4930569;28;20581;-86
2021/12/13 07:29:12;;;;;;;5.60;1.80;;;;;;;7.58;81.64;101236.03;4940493;28;20038;-86
2021/12/13 07:31:42;;;;;;;9.38;1.77;;;;;;;7.60;81.70;101255.81;4947089;28;20046;-85
2021/12/13 07:34:17;;;;;;;8.93;1.63;;;;;;;7.59;81.73;101256.13;4931678;28;20414;-86
2021/12/13 07:36:53;;;;;;;5.93;1.30;;;;;;;7.57;81.71;101261.16;4931606;28;20066;-86
2021/12/13 07:39:26;;;;;;;9.63;1.40;;;;;;;7.58;81.84;101262.75;4956520;28;20050;-86
2021/12/13 07:41:58;;;;;;;5.60;1.40;;;;;;;7.59;81.79;101267.97;4956131;28;20130;-86
2021/12/13 07:44:46;;;;;;;9.30;2.20;;;;;;;7.58;81.68;101280.13;4948753;28;20425;-86
2021/12/13 07:47:24;;;;;;;7.18;1.30;;;;;;;7.57;81.73;101285.94;4954178;28;20495;-86
2021/12/13 07:49:58;;;;;;;16.02;4.25;;;;;;;7.54;82.00;101292.06;4930962;28;20070;-86
2021/12/13 07:52:33;;;;;;;4.80;1.00;;;;;;;7.53;82.18;101288.50;4940307;28;20086;-85
2021/12/13 07:55:19;;;;;;;11.50;2.67;;;;;;;7.53;82.09;101295.94;4957800;28;20050;-85
2021/12/13 07:57:49;;;;;;;7.50;1.23;;;;;;;7.53;82.08;101299.53;4957766;28;20057;-85
2021/12/13 08:00:22;;;;;;;5.07;1.83;;;;;;;7.52;82.32;101306.16;4958662;28;20097;-85
2021/12/13 08:03:03;;;;;;;6.13;1.42;;;;;;;7.51;82.28;101306.47;4939027;28;20581;-85
2021/12/13 08:05:38;;;;;;;7.85;1.85;;;;;;;7.51;82.16;101309.22;4957580;28;20067;-85
2021/12/13 08:08:14;;;;;;;7.40;1.67;;;;;;;7.50;82.34;101324.13;4957663;28;20121;-86
2021/12/13 08:10:42;;;;;;;10.55;2.45;;;;;;;7.50;82.29;101316.66;4940107;28;20058;-85
2021/12/13 08:13:13;;;;;;;9.13;1.92;;;;;;;7.48;82.38;101318.94;4957342;28;20050;-86
2021/12/13 08:15:47;;;;;;;5.68;1.60;;;;;;;7.49;82.58;101319.75;4931705;28;20058;-87
2021/12/13 08:18:28;;;;;;;4.90;1.38;;;;;;;7.51;82.57;101323.81;4957260;28;20058;-86
2021/12/13 08:21:00;;;;;;;5.72;1.90;;;;;;;7.51;82.59;101334.84;4941857;28;20074;-85
2021/12/13 08:23:39;;;;;;;;;;;;;;;7.52;82.57;101343.94;4957349;28;20079;-85
2021/12/13 08:26:11;;;;;;;11.75;2.85;;;;;;;7.52;82.43;101341.97;4941165;28;19940;-86
2021/12/13 08:28:44;;;;;;;11.52;2.88;;;;;;;7.50;82.41;101358.00;4950189;28;20043;-87
2021/12/13 08:31:20;;;;;;;4.25;1.50;;;;;;;7.50;82.55;101349.72;4943775;28;20434;-84
2021/12/13 08:33:55;;;;;;;4.50;1.55;;;;;;;7.47;82.76;101347.59;4938913;28;20055;-84
2021/12/13 08:36:39;;;;;;;7.80;1.75;;;;;;;7.47;82.72;101355.84;4966174;28;22150;-88
2021/12/13 08:39:15;;;;;;;11.75;3.40;;;;;;;7.45;83.00;101351.78;4968119;28;20137;-89
2021/12/13 08:41:47;;;;;;;7.55;2.10;;;;;;;7.47;82.74;101353.09;4960335;28;20051;-88
2021/12/13 08:44:17;;;;;;;6.95;2.13;;;;;;;7.48;82.93;101349.22;4968715;28;20410;-85
2021/12/13 08:47:09;;;;;;;9.98;3.50;;;;;;;7.47;82.97;101353.09;4933172;28;20082;-86
2021/12/13 08:49:52;;;;;;;8.85;2.28;;;;;;;7.50;83.17;101362.69;4945702;28;20055;-85
2021/12/13 08:52:38;;;;;;;22.77;4.15;;;;;;;7.49;82.98;101370.16;4935558;28;20054;-84
2021/12/13 08:55:25;;;;;;;33.20;5.78;;;;;;;7.49;83.00;101377.59;4948721;28;20152;-84
2021/12/13 08:58:06;;;;;;;39.80;7.88;;;;;;;7.49;82.91;101381.19;4946568;28;20146;-84
2021/12/13 09:00:44;;;;;;;25.48;4.60;;;;;;;7.48;83.00;101378.72;4960986;28;20070;-84
2021/12/13 09:03:20;;;;;;;19.13;4.88;;;;;;;7.47;83.07;101383.41;4966744;28;20047;-84
2021/12/13 09:06:18;;;;;;;22.45;5.85;;;;;;;7.47;82.97;101385.34;4942602;28;20534;-85
2021/12/13 09:08:51;;;;;;;17.50;4.30;;;;;;;7.48;82.84;101379.53;4959807;28;20039;-85
2021/12/13 09:11:37;;;;;;;11.18;4.35;;;;;;;7.48;82.99;101387.81;4942800;28;20634;-85
2021/12/13 09:14:22;;;;;;;15.60;3.38;;;;;;;7.46;82.94;101384.53;4941960;28;20121;-85
2021/12/13 09:17:11;;;;;;;12.90;3.20;;;;;;;7.45;82.92;101376.56;4946784;28;20052;-85
2021/12/13 09:19:47;;;;;;;16.63;3.40;;;;;;;7.45;82.91;101387.59;4942284;28;20043;-86
2021/12/13 09:22:33;;;;;;;16.02;3.85;;;;;;;7.43;83.06;101389.84;4949329;28;20058;-84
2021/12/13 09:25:14;;;;;;;18.52;3.08;;;;;;;7.44;83.27;101400.53;4963595;28;20130;-85
2021/12/13 09:27:41;;;;;;;12.15;3.47;;;;;;;7.44;83.29;101397.00;4956917;28;20039;-87
2021/12/13 09:30:27;;;;;;;13.85;3.03;;;;;;;7.49;83.31;101399.66;4925326;28;20053;-87
2021/12/13 09:32:54;;;;;;;13.80;2.70;;;;;;;7.55;83.25;101409.41;4965842;28;20053;-88
2021/12/13 09:35:56;;;;;;;12.18;3.67;;;;;;;7.55;83.13;101415.75;4947951;28;20043;-86
2021/12/13 09:38:26;;;;;;;19.02;4.28;;;;;;;7.58;83.16;101414.31;4962334;28;20054;-87
2021/12/13 09:41:02;;;;;;;15.00;3.85;;;;;;;7.59;83.28;101411.25;4958233;28;20057;-87
2021/12/13 09:43:43;;;;;;;13.40;2.83;;;;;;;7.61;82.78;101409.00;4976718;28;20074;-86
2021/12/13 09:46:14;;;;;;;9.55;2.38;;;;;;;7.64;83.02;101413.06;4942776;28;20062;-86
2021/12/13 09:48:45;;;;;;;20.60;4.47;;;;;;;7.66;82.72;101397.88;4942863;28;20126;-86
2021/12/13 09:51:25;;;;;;;43.08;6.68;;;;;;;7.66;82.94;101408.06;4929787;28;20051;-85
2021/12/13 09:53:55;;;;;;;44.35;8.38;;;;;;;7.68;82.90;101408.56;4943101;28;20039;-87
2021/12/13 09:56:25;;;;;;;21.60;4.45;;;;;;;7.69;83.00;101408.28;4958191;28;20045;-87
2021/12/13 09:59:00;;;;;;;15.68;4.25;;;;;;;7.72;83.01;101406.84;4949766;28;20038;-87
2021/12/13 10:01:31;;;;;;;11.27;3.10;;;;;;;7.76;83.02;101410.59;4950300;28;20098;-85
2021/12/13 10:04:03;;;;;;;10.70;3.13;;;;;;;7.77;82.89;101410.28;4950832;28;20034;-86
2021/12/13 10:06:41;;;;;;;21.23;5.18;;;;;;;7.76;82.88;101411.41;4954895;28;20042;-88
2021/12/13 10:09:20;;;;;;;13.63;6.75;;;;;;;7.79;82.70;101419.06;4943625;28;20531;-84
2021/12/13 10:12:14;;;;;;;17.13;5.50;;;;;;;7.85;82.69;101439.06;4965441;28;20043;-84
2021/12/13 10:14:49;;;;;;;31.15;6.45;;;;;;;7.88;82.73;101435.69;4965108;28;20113;-86
2021/12/13 10:17:18;;;;;;;22.40;6.05;;;;;;;7.90;82.60;101431.50;4954025;28;20055;-82
2021/12/13 10:19:49;;;;;;;17.92;5.72;;;;;;;7.93;82.52;101428.13;4965901;28;20038;-87
2021/12/13 10:22:20;;;;;;;14.52;5.45;;;;;;;7.95;82.47;101431.38;4946462;28;20118;-86
2021/12/13 10:24:52;;;;;;;18.48;4.93;;;;;;;7.97;82.36;101434.63;4947611;28;20482;-84
2021/12/13 10:27:20;;;;;;;24.63;5.95;;;;;;;8.00;82.47;101427.69;4945121;28;20050;-84
2021/12/13 10:29:53;;;;;;;17.92;5.60;;;;;;;8.03;82.30;101437.28;4957444;28;20077;-84
2021/12/13 10:32:26;;;;;;;24.95;7.18;;;;;;;8.04;82.33;101436.16;4958332;28;20546;-85
2021/12/13 10:35:00;;;;;;;18.42;3.88;;;;;;;8.04;82.36;101436.16;4947532;28;20128;-84
2021/12/13 10:37:31;;;;;;;11.93;2.97;;;;;;;8.04;82.32;101433.41;4940807;28;20105;-84
2021/12/13 10:40:11;;;;;;;17.77;4.35;;;;;;;8.06;82.37;101442.97;4941988;28;20130;-85
2021/12/13 10:43:13;;;;;;;13.02;3.78;;;;;;;8.08;82.26;101443.47;4964471;28;20050;-86
2021/12/13 10:45:49;;;;;;;19.63;6.07;;;;;;;8.11;82.37;101442.03;4958865;28;20063;-85
2021/12/13 10:48:18;;;;;;;9.45;3.75;;;;;;;8.13;82.40;101448.88;4942687;28;20035;-84
2021/12/13 10:50:49;;;;;;;8.30;2.95;;;;;;;8.14;82.18;101449.69;4959933;28;20039;-84
2021/12/13 10:53:21;;;;;;;13.82;3.72;;;;;;;8.16;82.32;101450.19;4940546;28;20114;-84
2021/12/13 10:55:58;;;;;;;10.63;3.90;;;;;;;8.17;82.05;101444.38;4957187;28;20137;-83
2021/12/13 10:58:30;;;;;;;9.27;3.83;;;;;;;8.21;82.21;101437.09;4959072;28;20053;-83
2021/12/13 11:01:02;;;;;;;13.90;4.10;;;;;;;8.26;82.35;101441.69;4941399;28;20097;-83
2021/12/13 11:03:33;;;;;;;14.45;5.25;;;;;;;8.27;81.99;101427.63;4942281;28;20046;-83
2021/12/13 11:06:01;;;;;;;14.48;4.93;;;;;;;8.32;81.96;101432.19;4938607;28;20039;-83
2021/12/13 11:08:30;;;;;;;17.02;7.70;;;;;;;8.34;81.75;101427.19;4951383;28;20557;-84
2021/12/13 11:11:08;;;;;;;11.13;4.50;;;;;;;8.36;81.46;101431.25;4942804;28;20049;-84
2021/12/13 11:13:37;;;;;;;13.70;5.38;;;;;;;8.39;81.21;101427.06;4944021;28;20442;-84
2021/12/13 11:16:12;;;;;;;15.25;5.82;;;;;;;8.41;81.02;101424.78;4932455;28;20054;-86
2021/12/13 11:18:41;;;;;;;15.52;3.85;;;;;;;8.45;81.05;101431.31;4954945;28;20035;-84
2021/12/13 11:21:18;;;;;;;15.48;4.47;;;;;;;8.47;80.78;101434.59;4957452;28;20043;-84
2021/12/13 11:23:45;;;;;;;10.27;3.90;;;;;;;8.49;80.82;101426.81;4938636;28;20081;-84
2021/12/13 11:26:20;;;;;;;15.00;4.10;;;;;;;8.50;80.77;101432.00;4975205;28;21793;-84
2021/12/13 11:28:48;;;;;;;14.30;4.45;;;;;;;8.55;80.66;101440.13;4943755;28;20106;-84
2021/12/13 11:31:53;;;;;;;11.93;3.67;;;;;;;8.60;80.48;101436.47;4957981;28;20047;-84
2021/12/13 11:34:53;;;;;;;14.55;4.88;;;;;;;8.65;80.43;101438.25;4964201;28;20145;-84
2021/12/13 11:37:41;;;;;;;9.75;3.50;;;;;;;8.69;80.50;101440.06;4956468;28;20489;-86
2021/12/13 11:40:36;;;;;;;10.27;3.53;;;;;;;8.70;80.42;101450.00;4944800;28;20534;-84
2021/12/13 11:43:28;;;;;;;10.38;3.95;;;;;;;8.72;80.29;101444.13;4964441;28;20075;-90
2021/12/13 11:46:27;;;;;;;8.63;3.78;;;;;;;8.74;80.16;101459.25;4940310;28;20047;-85
2021/12/13 11:49:15;;;;;;;16.20;4.53;;;;;;;8.73;79.87;101449.38;4942705;28;20141;-85
2021/12/13 11:52:03;;;;;;;11.70;3.88;;;;;;;8.76;79.86;101445.97;4946934;28;20180;-84
2021/12/13 11:54:46;;;;;;;16.20;5.05;;;;;;;8.77;79.52;101447.59;4960441;28;20070;-84
2021/12/13 11:57:28;;;;;;;12.95;6.03;;;;;;;8.79;79.33;101450.84;4958997;28;20126;-84
2021/12/13 12:00:25;;;;;;;12.40;5.05;;;;;;;8.81;77.93;101445.84;4944839;28;20055;-84
2021/12/13 12:03:17;;;;;;;14.27;5.80;;;;;;;8.80;79.08;101448.91;4963010;28;20043;-84
2021/12/13 12:06:03;;;;;;;8.00;4.20;;;;;;;8.81;79.14;101454.13;4967432;28;20039;-84
2021/12/13 12:08:49;;;;;;;8.40;3.50;;;;;;;8.82;78.75;101460.44;4962487;28;20053;-83
2021/12/13 12:11:54;;;;;;;15.10;3.97;;;;;;;8.85;78.65;101449.59;4969294;28;20461;-84
2021/12/13 12:14:25;;;;;;;10.70;3.70;;;;;;;8.88;79.08;101451.72;4944240;28;20062;-85
2021/12/13 12:16:56;;;;;;;16.15;3.50;;;;;;;8.91;78.83;101453.84;4968023;28;20035;-84
2021/12/13 12:19:27;;;;;;;14.35;2.92;;;;;;;8.94;79.00;101457.91;4958827;28;20043;-84
2021/12/13 12:22:13;;;;;;;6.65;2.55;;;;;;;8.96;78.20;101455.66;4940730;28;20039;-84
2021/12/13 12:24:44;;;;;;;7.03;2.65;;;;;;;8.97;78.28;101454.53;4937320;28;20077;-85